Time;durP1;ratioP1;P1;durP2;ratioP2;P2;SDS_P1;SDS_P2;PMS_P1;PMS_P2;Temp;Humidity;BMP_temperature;BMP_pressure;BME280_temperature;BME280_humidity;BME280_pressure;Samples;Min_cycle;Max_cycle;Signal;HPM_P1;HPM_P2
2022/11/27 00:00:26;;;;;;;39.37;15.47;;;2.10;99.90;;;;;;4412596;28;657612;-65
2022/11/27 00:03:14;;;;;;;36.73;15.07;;;2.10;99.90;;;;;;4434866;28;659153;-65
2022/11/27 00:06:01;;;;;;;38.17;15.00;;;2.10;99.90;;;;;;4412311;28;657548;-65
2022/11/27 00:08:48;;;;;;;38.33;15.23;;;2.10;99.90;;;;;;4431578;28;658184;-65
2022/11/27 00:11:38;;;;;;;35.23;15.03;;;2.20;99.90;;;;;;4412596;28;657815;-65
2022/11/27 00:14:25;;;;;;;33.43;14.43;;;2.10;99.90;;;;;;4419572;28;657839;-67
2022/11/27 00:17:12;;;;;;;40.80;15.73;;;2.10;99.90;;;;;;4435677;28;659145;-65
2022/11/27 00:20:01;;;;;;;39.80;16.30;;;2.10;99.90;;;;;;4431609;28;658066;-65
2022/11/27 00:22:48;;;;;;;43.20;16.30;;;2.10;99.90;;;;;;4408738;28;658493;-65
2022/11/27 00:25:35;;;;;;;41.17;16.70;;;2.10;99.90;;;;;;4420553;28;657578;-67
2022/11/27 00:28:22;;;;;;;43.83;18.60;;;2.10;99.90;;;;;;4435299;28;657719;-65
2022/11/27 00:31:13;;;;;;;50.70;20.33;;;2.00;99.90;;;;;;4431249;28;657647;-65
2022/11/27 00:34:01;;;;;;;61.47;22.57;;;2.00;99.90;;;;;;4389691;28;657583;-66
2022/11/27 00:36:49;;;;;;;59.03;24.20;;;2.10;99.90;;;;;;4431861;28;658815;-65
2022/11/27 00:39:36;;;;;;;58.00;23.10;;;2.10;99.90;;;;;;4412463;28;658349;-65
2022/11/27 00:42:24;;;;;;;51.37;21.03;;;2.00;99.90;;;;;;4430749;28;657607;-65
2022/11/27 00:45:11;;;;;;;117.93;22.17;;;2.10;99.90;;;;;;4412131;28;657654;-65
2022/11/27 00:47:58;;;;;;;47.43;18.83;;;2.10;99.90;;;;;;4429891;28;659295;-65
2022/11/27 00:50:45;;;;;;;53.03;19.40;;;2.00;99.90;;;;;;4412048;28;657514;-66
2022/11/27 00:53:34;;;;;;;42.03;17.45;;;1.90;99.90;;;;;;4435117;28;659176;-65
2022/11/27 00:56:22;;;;;;;55.07;19.20;;;1.90;99.90;;;;;;4412275;28;657768;-65
2022/11/27 00:59:10;;;;;;;55.03;19.33;;;2.00;99.90;;;;;;4430366;28;658509;-65
2022/11/27 01:01:57;;;;;;;49.87;19.07;;;2.00;99.90;;;;;;4411626;28;658599;-65
2022/11/27 01:04:45;;;;;;;49.07;18.57;;;1.90;99.90;;;;;;4429769;28;657965;-65
2022/11/27 01:07:32;;;;;;;63.63;23.60;;;2.00;99.90;;;;;;4407495;28;658940;-65
2022/11/27 01:10:20;;;;;;;56.93;23.77;;;2.00;99.90;;;;;;4430017;28;657390;-65
2022/11/27 01:13:07;;;;;;;53.33;20.83;;;2.00;99.90;;;;;;4407334;28;658201;-65
2022/11/27 01:15:59;;;;;;;52.33;20.90;;;2.00;99.90;;;;;;4432717;28;658352;-67
2022/11/27 01:18:46;;;;;;;64.10;26.47;;;2.00;99.90;;;;;;4412467;28;657417;-66
2022/11/27 01:21:34;;;;;;;70.30;28.13;;;2.00;99.90;;;;;;4433365;28;658320;-65
2022/11/27 01:24:21;;;;;;;58.93;23.70;;;2.00;99.90;;;;;;4414139;28;657674;-66
2022/11/27 01:27:09;;;;;;;54.73;20.50;;;2.00;99.90;;;;;;4433177;28;658783;-65
2022/11/27 01:29:56;;;;;;;53.57;20.43;;;1.90;99.90;;;;;;4414435;28;658471;-65
2022/11/27 01:32:43;;;;;;;60.23;19.83;;;1.80;99.90;;;;;;4433308;28;657828;-65
2022/11/27 01:35:30;;;;;;;52.67;18.93;;;1.90;99.90;;;;;;4414279;28;657147;-66
2022/11/27 01:38:18;;;;;;;54.43;19.47;;;1.90;99.90;;;;;;4432704;28;658528;-65
2022/11/27 01:41:06;;;;;;;54.37;19.63;;;2.00;99.90;;;;;;4426708;28;657818;-67
2022/11/27 01:43:56;;;;;;;49.50;19.80;;;2.00;99.90;;;;;;4436528;28;658359;-65
2022/11/27 01:46:43;;;;;;;34.53;13.70;;;2.00;99.90;;;;;;4409952;28;658313;-65
2022/11/27 01:49:32;;;;;;;25.67;11.50;;;2.00;99.90;;;;;;4413792;28;657748;-66
2022/11/27 01:52:21;;;;;;;27.90;10.57;;;1.80;99.90;;;;;;4432829;28;657199;-65
2022/11/27 01:55:09;;;;;;;27.60;10.00;;;1.70;99.90;;;;;;4409517;28;658358;-65
2022/11/27 01:57:58;;;;;;;24.23;9.90;;;1.70;99.90;;;;;;4414010;28;657640;-65
2022/11/27 02:00:47;;;;;;;23.93;9.80;;;1.70;99.90;;;;;;4415986;28;657196;-65
2022/11/27 02:03:34;;;;;;;27.37;9.53;;;1.80;99.90;;;;;;4434626;28;656876;-65
2022/11/27 02:06:21;;;;;;;22.40;9.27;;;1.90;99.90;;;;;;4411532;28;656828;-65
2022/11/27 02:09:08;;;;;;;30.40;10.37;;;1.70;99.90;;;;;;4436937;28;657786;-65
2022/11/27 02:11:58;;;;;;;748.27;30.30;;;1.70;99.90;;;;;;4415997;28;658149;-67
2022/11/27 02:14:48;;;;;;;24.13;9.57;;;1.70;99.90;;;;;;4414709;28;658542;-67
2022/11/27 02:17:39;;;;;;;32.17;10.50;;;1.70;99.90;;;;;;4415462;28;656539;-65
2022/11/27 02:20:33;;;;;;;31.20;11.30;;;1.70;99.90;;;;;;4414353;28;657888;-65
2022/11/27 02:23:36;;;;;;;29.53;11.37;;;1.80;99.90;;;;;;4397104;28;657616;-66
2022/11/27 02:26:33;;;;;;;30.07;11.40;;;1.80;99.90;;;;;;4409563;28;657815;-65
2022/11/27 02:29:22;;;;;;;24.67;9.90;;;1.90;99.90;;;;;;4396020;28;658068;-67
2022/11/27 02:32:11;;;;;;;23.73;9.40;;;1.90;99.90;;;;;;4434190;28;656381;-65
2022/11/27 02:35:00;;;;;;;22.47;9.13;;;1.70;99.90;;;;;;4410963;28;656803;-65
2022/11/27 02:37:48;;;;;;;20.87;7.77;;;1.60;99.90;;;;;;4411314;28;657712;-65
2022/11/27 02:40:37;;;;;;;21.17;7.90;;;1.60;99.90;;;;;;4417580;28;656613;-66
2022/11/27 02:43:25;;;;;;;20.30;7.40;;;1.60;99.90;;;;;;4433669;28;656572;-65
2022/11/27 02:46:14;;;;;;;17.77;7.30;;;1.60;99.90;;;;;;4411231;28;657078;-66
2022/11/27 02:49:04;;;;;;;14.35;6.63;;;1.60;99.90;;;;;;4411170;28;656575;-65
2022/11/27 02:51:53;;;;;;;11.73;5.43;;;1.60;99.90;;;;;;4415005;28;656458;-65
2022/11/27 02:54:41;;;;;;;13.30;7.00;;;1.50;99.90;;;;;;4414983;28;656591;-66
2022/11/27 02:57:28;;;;;;;15.43;6.27;;;1.60;99.90;;;;;;4437235;28;657443;-65
2022/11/27 03:00:16;;;;;;;18.67;7.13;;;1.70;99.90;;;;;;4451174;28;656373;-65
2022/11/27 03:03:06;;;;;;;15.23;5.83;;;1.70;99.90;;;;;;4863412;28;533073;-65
2022/11/27 03:05:54;;;;;;;17.40;5.37;;;1.70;99.90;;;;;;4409993;28;657885;-65
2022/11/27 03:08:43;;;;;;;10.90;4.20;;;1.80;99.90;;;;;;4413912;28;657889;-65
2022/11/27 03:11:31;;;;;;;8.87;4.37;;;1.80;99.90;;;;;;4413875;28;657456;-66
2022/11/27 03:14:19;;;;;;;11.20;4.67;;;1.70;99.90;;;;;;4433629;28;656366;-65
2022/11/27 03:17:08;;;;;;;12.00;5.67;;;1.70;99.90;;;;;;4413092;28;656644;-65
2022/11/27 03:19:57;;;;;;;14.07;5.63;;;1.70;99.90;;;;;;4413530;28;656637;-67
2022/11/27 03:22:45;;;;;;;15.10;6.73;;;1.80;99.90;;;;;;4432663;28;656519;-65
2022/11/27 03:25:32;;;;;;;14.27;7.07;;;1.80;99.90;;;;;;4436480;28;656892;-65
2022/11/27 03:28:19;;;;;;;12.80;6.20;;;1.80;99.90;;;;;;4432409;28;656667;-65
2022/11/27 03:31:06;;;;;;;17.93;6.97;;;1.90;99.90;;;;;;4409604;28;657048;-65
2022/11/27 03:33:54;;;;;;;21.73;9.00;;;1.80;99.90;;;;;;4432787;28;656637;-65
2022/11/27 03:36:42;;;;;;;16.90;7.50;;;1.60;99.90;;;;;;4412960;28;657132;-66
2022/11/27 03:39:29;;;;;;;18.55;7.03;;;1.60;99.90;;;;;;4431917;28;656948;-65
2022/11/27 03:42:19;;;;;;;18.43;7.63;;;1.50;99.90;;;;;;4411602;28;656401;-65
2022/11/27 03:45:09;;;;;;;16.27;7.23;;;1.40;99.90;;;;;;4412950;28;656558;-66
2022/11/27 03:48:02;;;;;;;18.17;6.97;;;1.40;99.90;;;;;;4413501;28;657770;-65
2022/11/27 03:50:56;;;;;;;19.30;7.47;;;1.40;99.90;;;;;;4409444;28;657012;-65
2022/11/27 03:53:52;;;;;;;17.23;7.10;;;1.40;99.90;;;;;;4408887;28;656848;-65
2022/11/27 03:56:42;;;;;;;20.70;9.17;;;1.40;99.90;;;;;;4404056;28;656859;-67
2022/11/27 03:59:30;;;;;;;18.33;7.83;;;1.50;99.90;;;;;;4430975;28;656138;-65
2022/11/27 04:02:27;;;;;;;17.27;7.57;;;1.60;99.90;;;;;;4409873;28;657511;-65
2022/11/27 04:05:15;;;;;;;22.48;8.70;;;1.60;99.90;;;;;;4406912;28;656551;-67
2022/11/27 04:08:02;;;;;;;24.03;9.50;;;1.60;99.90;;;;;;4436804;28;657146;-65
2022/11/27 04:10:51;;;;;;;27.77;11.13;;;1.60;99.90;;;;;;4432718;28;656840;-65
2022/11/27 04:13:38;;;;;;;25.30;12.17;;;1.60;99.90;;;;;;4408652;28;658324;-65
2022/11/27 04:16:25;;;;;;;29.70;12.60;;;1.70;99.90;;;;;;4417120;28;657432;-67
2022/11/27 04:19:12;;;;;;;39.17;15.10;;;1.70;99.90;;;;;;4435746;28;659109;-65
2022/11/27 04:21:59;;;;;;;30.97;13.67;;;1.70;99.90;;;;;;4431393;28;657702;-65
2022/11/27 04:24:46;;;;;;;29.53;13.80;;;1.70;99.90;;;;;;4412753;28;657622;-65
2022/11/27 04:27:35;;;;;;;33.00;14.63;;;1.70;99.90;;;;;;4431238;28;657884;-65
2022/11/27 04:30:22;;;;;;;39.13;18.30;;;1.70;99.90;;;;;;4408375;28;658702;-65
2022/11/27 04:33:09;;;;;;;38.10;17.97;;;1.70;99.90;;;;;;4431195;28;657355;-65
2022/11/27 04:35:56;;;;;;;29.90;14.57;;;1.70;99.90;;;;;;4412385;28;657857;-65
2022/11/27 04:38:43;;;;;;;37.35;15.82;;;1.80;99.90;;;;;;4431152;28;657966;-65
2022/11/27 04:41:30;;;;;;;37.47;18.03;;;1.90;99.90;;;;;;4411973;28;658013;-66
2022/11/27 04:44:21;;;;;;;34.07;17.63;;;1.80;99.90;;;;;;4435411;28;658219;-65
2022/11/27 04:47:08;;;;;;;35.22;17.42;;;1.80;99.90;;;;;;4408596;28;658308;-65
2022/11/27 04:49:55;;;;;;;39.30;19.33;;;1.80;99.90;;;;;;4414983;28;658993;-66
2022/11/27 04:52:42;;;;;;;40.53;19.87;;;1.80;99.90;;;;;;4435003;28;659247;-66
2022/11/27 04:55:29;;;;;;;43.93;20.40;;;1.80;99.90;;;;;;4434656;28;657402;-65
2022/11/27 04:58:16;;;;;;;46.93;21.43;;;1.80;99.90;;;;;;4415269;28;658629;-66
2022/11/27 05:01:05;;;;;;;46.73;21.90;;;1.80;99.90;;;;;;4642577;28;657999;-65
2022/11/27 05:03:52;;;;;;;42.13;21.47;;;1.80;99.90;;;;;;4677251;28;534074;-65
2022/11/27 05:06:39;;;;;;;40.60;20.37;;;1.80;99.90;;;;;;4432983;28;657617;-65
2022/11/27 05:09:26;;;;;;;44.33;22.77;;;1.80;99.90;;;;;;4414490;28;657726;-66
2022/11/27 05:12:13;;;;;;;49.70;21.70;;;1.80;99.90;;;;;;4433614;28;658713;-65
2022/11/27 05:15:00;;;;;;;50.13;21.40;;;1.80;99.90;;;;;;4414161;28;657542;-66
2022/11/27 05:17:49;;;;;;;44.07;20.73;;;1.70;99.90;;;;;;4433651;28;658977;-65
2022/11/27 05:20:36;;;;;;;51.70;23.00;;;1.70;99.90;;;;;;4414050;28;657635;-66
2022/11/27 05:23:23;;;;;;;49.47;21.90;;;1.60;99.90;;;;;;4432675;28;659336;-65
2022/11/27 05:26:10;;;;;;;54.13;22.40;;;1.70;99.90;;;;;;4414570;28;657416;-67
2022/11/27 05:28:57;;;;;;;48.63;22.70;;;1.70;99.90;;;;;;4436697;28;657853;-65
2022/11/27 05:31:44;;;;;;;50.87;24.20;;;1.70;99.90;;;;;;4432914;28;657780;-66
2022/11/27 05:34:33;;;;;;;44.60;21.97;;;1.70;99.90;;;;;;4410239;28;658598;-65
2022/11/27 05:37:20;;;;;;;56.10;24.47;;;1.70;99.90;;;;;;4421834;28;657447;-66
2022/11/27 05:40:09;;;;;;;55.38;25.77;;;1.80;99.90;;;;;;4437079;28;658439;-65
2022/11/27 05:42:56;;;;;;;53.80;25.80;;;1.80;99.90;;;;;;4397352;28;657925;-65
2022/11/27 05:45:43;;;;;;;54.00;25.30;;;1.70;99.90;;;;;;4416284;28;658816;-65
2022/11/27 05:48:30;;;;;;;57.00;25.83;;;1.70;99.90;;;;;;4397508;28;658084;-67
2022/11/27 05:51:19;;;;;;;57.53;26.47;;;1.70;99.90;;;;;;4420285;28;659823;-65
2022/11/27 05:54:06;;;;;;;54.77;26.33;;;1.70;99.90;;;;;;4397408;28;657765;-66
2022/11/27 05:56:53;;;;;;;51.33;24.17;;;1.70;99.90;;;;;;4418582;28;658925;-66
2022/11/27 05:59:40;;;;;;;50.53;22.77;;;1.70;99.90;;;;;;4383967;28;658109;-67
2022/11/27 06:02:27;;;;;;;52.77;22.80;;;1.70;99.90;;;;;;4401857;28;658808;-65
2022/11/27 06:05:14;;;;;;;49.50;23.27;;;1.60;99.90;;;;;;4397661;28;658111;-65
2022/11/27 06:08:03;;;;;;;48.73;23.33;;;1.50;99.90;;;;;;4379128;28;657934;-65
2022/11/27 06:10:50;;;;;;;47.88;22.40;;;1.50;99.90;;;;;;4383311;28;657674;-66
2022/11/27 06:13:37;;;;;;;43.73;20.37;;;1.50;99.90;;;;;;4401768;28;659214;-65
2022/11/27 06:16:24;;;;;;;40.93;19.60;;;1.50;99.90;;;;;;4397406;28;657762;-65
2022/11/27 06:19:11;;;;;;;43.63;20.13;;;1.50;99.90;;;;;;4378917;28;657567;-65
2022/11/27 06:21:58;;;;;;;50.77;23.93;;;1.60;99.90;;;;;;4397270;28;658331;-66
2022/11/27 06:24:47;;;;;;;63.77;28.57;;;1.60;99.90;;;;;;4378655;28;657688;-65
2022/11/27 06:27:34;;;;;;;60.43;30.10;;;1.60;99.90;;;;;;4397212;28;657234;-65
2022/11/27 06:30:21;;;;;;;78.38;33.63;;;1.70;99.90;;;;;;4378756;28;657465;-65
2022/11/27 06:33:08;;;;;;;95.00;38.37;;;1.60;99.90;;;;;;4397044;28;658350;-65
2022/11/27 06:35:55;;;;;;;95.03;39.90;;;1.60;99.90;;;;;;4378024;28;657588;-66
2022/11/27 06:38:42;;;;;;;70.80;30.40;;;1.60;99.90;;;;;;4396993;28;658868;-65
2022/11/27 06:41:32;;;;;;;70.17;31.53;;;1.60;99.90;;;;;;4396909;28;657864;-66
2022/11/27 06:44:19;;;;;;;85.03;34.53;;;1.60;99.90;;;;;;4397677;28;657135;-65
2022/11/27 06:47:06;;;;;;;81.07;32.33;;;1.60;99.90;;;;;;4378011;28;657360;-65
2022/11/27 06:49:53;;;;;;;71.67;29.37;;;1.70;99.90;;;;;;4397926;28;658316;-65
2022/11/27 06:52:40;;;;;;;72.47;27.47;;;1.70;99.90;;;;;;4379135;28;657613;-65
2022/11/27 06:55:28;;;;;;;65.83;28.67;;;1.70;99.90;;;;;;4397781;28;659218;-64
2022/11/27 06:58:16;;;;;;;57.65;24.88;;;1.80;99.90;;;;;;4399897;28;658026;-66
2022/11/27 07:01:05;;;;;;;52.93;21.37;;;1.80;99.90;;;;;;4640890;28;658345;-65
2022/11/27 07:03:52;;;;;;;58.10;24.00;;;1.90;99.90;;;;;;4674998;28;534340;-65
2022/11/27 07:06:39;;;;;;;59.40;25.03;;;1.90;99.90;;;;;;4430887;28;657529;-65
2022/11/27 07:09:26;;;;;;;64.30;26.73;;;2.00;99.90;;;;;;4412628;28;658177;-65
2022/11/27 07:12:13;;;;;;;57.03;24.03;;;2.00;99.90;;;;;;4434808;28;659128;-65
2022/11/27 07:15:01;;;;;;;60.47;25.47;;;2.00;99.90;;;;;;4414298;28;657636;-66
2022/11/27 07:17:49;;;;;;;66.23;26.80;;;2.00;99.90;;;;;;4429089;28;657630;-65
2022/11/27 07:20:36;;;;;;;61.47;25.67;;;2.00;99.90;;;;;;4413125;28;657187;-65
2022/11/27 07:23:23;;;;;;;64.03;26.10;;;2.00;99.90;;;;;;4432040;28;658861;-65
2022/11/27 07:26:11;;;;;;;57.10;23.73;;;2.00;99.90;;;;;;4412914;28;657632;-66
2022/11/27 07:28:58;;;;;;;65.30;27.53;;;2.10;99.90;;;;;;4432144;28;657658;-65
2022/11/27 07:31:49;;;;;;;63.67;25.63;;;2.20;99.90;;;;;;4413218;28;658530;-65
2022/11/27 07:34:37;;;;;;;62.97;26.10;;;2.20;99.90;;;;;;4413283;28;658945;-65
2022/11/27 07:37:24;;;;;;;70.83;30.13;;;2.30;99.90;;;;;;4430910;28;657878;-65
2022/11/27 07:40:11;;;;;;;74.23;29.37;;;2.50;99.90;;;;;;4412905;28;657526;-65
2022/11/27 07:42:58;;;;;;;68.53;28.63;;;2.50;99.90;;;;;;4431861;28;658654;-65
2022/11/27 07:45:46;;;;;;;70.70;29.07;;;2.40;99.90;;;;;;4413158;28;657636;-65
2022/11/27 07:48:34;;;;;;;75.83;30.60;;;2.40;99.90;;;;;;4435929;28;657883;-65
2022/11/27 07:51:21;;;;;;;65.63;29.87;;;2.40;99.90;;;;;;4412979;28;657501;-65
2022/11/27 07:54:09;;;;;;;72.20;28.83;;;2.40;99.90;;;;;;4431891;28;657256;-65
2022/11/27 07:56:56;;;;;;;67.20;26.08;;;2.40;99.90;;;;;;4412872;28;657620;-65
2022/11/27 07:59:43;;;;;;;64.87;27.20;;;2.50;99.90;;;;;;4414223;28;658238;-65
2022/11/27 08:02:30;;;;;;;67.40;27.10;;;2.60;99.90;;;;;;4395408;28;657708;-66
2022/11/27 08:05:19;;;;;;;57.43;25.27;;;2.60;99.90;;;;;;4414033;28;658842;-64
2022/11/27 08:08:06;;;;;;;64.53;27.52;;;2.70;99.90;;;;;;4390841;28;658184;-65
2022/11/27 08:10:53;;;;;;;70.27;27.97;;;2.70;99.90;;;;;;4418082;28;658457;-65
2022/11/27 08:13:40;;;;;;;63.80;27.87;;;2.80;99.90;;;;;;4397696;28;657496;-66
2022/11/27 08:16:27;;;;;;;63.95;28.40;;;2.90;99.90;;;;;;4418250;28;658110;-65
2022/11/27 08:19:14;;;;;;;57.43;25.33;;;2.90;99.90;;;;;;4414253;28;657631;-64
2022/11/27 08:22:03;;;;;;;47.23;22.03;;;3.00;99.90;;;;;;4391997;28;657449;-65
2022/11/27 08:24:50;;;;;;;52.40;23.47;;;3.10;99.90;;;;;;4407951;28;657513;-67
2022/11/27 08:27:37;;;;;;;48.87;22.50;;;3.10;99.90;;;;;;4421602;28;659324;-64
2022/11/27 08:30:24;;;;;;;45.53;21.33;;;3.10;99.90;;;;;;4417583;28;657710;-65
2022/11/27 08:33:12;;;;;;;48.13;21.50;;;3.00;99.90;;;;;;4399020;28;658513;-65
2022/11/27 08:35:59;;;;;;;59.13;24.60;;;3.10;99.90;;;;;;4417168;28;657963;-65
2022/11/27 08:38:48;;;;;;;44.27;20.60;;;3.10;99.90;;;;;;4398772;28;657586;-65
2022/11/27 08:41:35;;;;;;;41.83;18.60;;;3.20;99.90;;;;;;4400558;28;657993;-66
2022/11/27 08:44:22;;;;;;;35.05;16.52;;;3.30;99.90;;;;;;4420472;28;657824;-65
2022/11/27 08:47:09;;;;;;;40.23;17.43;;;3.30;99.90;;;;;;4416635;28;657340;-65
2022/11/27 08:49:56;;;;;;;40.47;18.27;;;3.30;99.90;;;;;;4393904;28;657982;-65
2022/11/27 08:52:43;;;;;;;51.93;22.07;;;3.20;99.90;;;;;;4416646;28;657836;-65
2022/11/27 08:55:32;;;;;;;60.07;24.20;;;3.20;99.90;;;;;;4397345;28;657433;-65
2022/11/27 08:58:19;;;;;;;60.97;26.00;;;3.30;99.90;;;;;;4422956;28;657795;-65
2022/11/27 09:01:10;;;;;;;31.23;15.17;;;3.30;99.90;;;;;;4415742;28;657589;-65
2022/11/27 09:03:57;;;;;;;27.93;13.10;;;3.40;99.90;;;;;;4411760;28;659217;-65
2022/11/27 09:06:46;;;;;;;32.20;15.60;;;3.40;99.90;;;;;;4430711;28;657822;-67
2022/11/27 09:09:33;;;;;;;36.85;17.63;;;3.40;99.90;;;;;;4435014;28;659290;-65
2022/11/27 09:12:21;;;;;;;37.87;17.43;;;3.50;99.90;;;;;;4419135;28;657729;-67
2022/11/27 09:15:10;;;;;;;24.50;12.67;;;3.50;99.90;;;;;;4434326;28;657823;-65
2022/11/27 09:17:57;;;;;;;27.03;13.70;;;3.50;99.90;;;;;;4411527;28;658277;-65
2022/11/27 09:20:44;;;;;;;27.97;14.33;;;3.40;99.90;;;;;;4434100;28;658232;-65
2022/11/27 09:23:31;;;;;;;32.83;14.33;;;3.40;99.90;;;;;;4415440;28;657537;-65
2022/11/27 09:26:18;;;;;;;32.37;15.93;;;3.40;99.90;;;;;;4434167;28;658635;-64
2022/11/27 09:29:06;;;;;;;34.60;15.03;;;3.50;99.90;;;;;;4415236;28;657515;-65
2022/11/27 09:31:53;;;;;;;35.47;17.17;;;3.50;99.90;;;;;;4434102;28;658627;-65
2022/11/27 09:34:41;;;;;;;35.67;17.40;;;3.40;99.90;;;;;;4414818;28;659186;-65
2022/11/27 09:37:28;;;;;;;33.83;16.83;;;3.40;99.90;;;;;;4434037;28;657610;-64
2022/11/27 09:40:16;;;;;;;38.77;18.10;;;3.40;99.90;;;;;;4425718;28;657598;-66
2022/11/27 09:43:08;;;;;;;39.33;19.03;;;3.40;99.90;;;;;;4434103;28;658409;-65
2022/11/27 09:45:59;;;;;;;36.83;17.60;;;3.50;99.90;;;;;;4392079;28;657727;-65
2022/11/27 09:48:47;;;;;;;34.47;17.90;;;3.40;99.90;;;;;;4410908;28;659123;-65
2022/11/27 09:51:35;;;;;;;33.83;18.03;;;3.50;99.90;;;;;;4433907;28;657666;-64
2022/11/27 09:54:24;;;;;;;37.13;18.20;;;3.60;99.90;;;;;;4414937;28;659270;-65
2022/11/27 09:57:13;;;;;;;38.77;18.43;;;3.60;99.90;;;;;;4410690;28;658460;-65
2022/11/27 10:00:03;;;;;;;40.77;19.43;;;3.70;99.90;;;;;;4414023;28;657596;-65
2022/11/27 10:02:52;;;;;;;38.50;17.77;;;3.60;99.90;;;;;;4426879;28;657227;-66
2022/11/27 10:05:43;;;;;;;36.93;17.87;;;3.60;99.90;;;;;;4433197;28;657617;-65
2022/11/27 10:08:33;;;;;;;31.10;15.70;;;3.60;99.90;;;;;;4401329;28;657957;-66
2022/11/27 10:11:23;;;;;;;31.50;14.43;;;3.60;99.90;;;;;;4414160;28;657497;-66
2022/11/27 10:14:19;;;;;;;24.20;11.57;;;3.70;99.90;;;;;;4427337;28;657697;-67
2022/11/27 10:17:09;;;;;;;22.47;12.23;;;3.70;99.90;;;;;;4409095;28;657809;-64
2022/11/27 10:19:59;;;;;;;31.30;12.67;;;3.80;99.90;;;;;;4413320;28;658273;-65
2022/11/27 10:22:50;;;;;;;24.73;11.57;;;3.90;99.90;;;;;;4409825;28;657468;-65
2022/11/27 10:25:39;;;;;;;38.93;15.83;;;4.00;99.90;;;;;;4413779;28;659092;-64
2022/11/27 10:28:29;;;;;;;31.60;15.83;;;4.00;99.90;;;;;;4413765;28;659240;-65
2022/11/27 10:31:18;;;;;;;34.10;15.33;;;4.10;99.90;;;;;;4412509;28;657714;-65
2022/11/27 10:34:06;;;;;;;22.53;11.77;;;4.20;99.90;;;;;;4413433;28;657694;-66
2022/11/27 10:36:55;;;;;;;27.13;11.57;;;4.20;99.90;;;;;;4432393;28;658372;-65
2022/11/27 10:39:44;;;;;;;32.95;16.38;;;4.20;99.90;;;;;;4413705;28;659267;-64
2022/11/27 10:42:33;;;;;;;32.10;16.53;;;4.30;99.90;;;;;;4412926;28;657730;-65
2022/11/27 10:45:22;;;;;;;35.17;16.60;;;4.30;99.90;;;;;;4413242;28;657587;-65
2022/11/27 10:48:09;;;;;;;39.80;17.67;;;4.40;99.90;;;;;;4431405;28;658020;-65
2022/11/27 10:50:56;;;;;;;37.50;18.93;;;4.40;99.90;;;;;;4413110;28;657585;-65
2022/11/27 10:53:46;;;;;;;35.23;17.93;;;4.50;99.90;;;;;;4431874;28;659853;-64
2022/11/27 10:56:40;;;;;;;31.70;17.10;;;4.60;99.90;;;;;;4408610;28;658773;-65
2022/11/27 10:59:27;;;;;;;32.60;17.47;;;4.50;99.90;;;;;;4385605;28;658056;-64
2022/11/27 11:02:28;;;;;;;36.47;17.90;;;4.50;99.90;;;;;;4882575;28;657940;-67
2022/11/27 11:05:23;;;;;;;28.57;14.83;;;4.40;99.90;;;;;;4389024;28;657473;-65
2022/11/27 11:08:15;;;;;;;25.33;12.70;;;4.40;99.90;;;;;;4404126;28;657423;-66
2022/11/27 11:11:05;;;;;;;24.70;12.30;;;4.30;99.90;;;;;;4406566;28;658189;-65
2022/11/27 11:13:53;;;;;;;27.07;13.70;;;4.30;99.90;;;;;;4407998;28;658811;-64
2022/11/27 11:16:42;;;;;;;25.27;11.50;;;4.40;99.90;;;;;;4413570;28;658117;-65
2022/11/27 11:19:30;;;;;;;20.53;10.43;;;4.50;99.90;;;;;;4431024;28;657174;-64
2022/11/27 11:22:17;;;;;;;23.30;12.40;;;4.50;99.90;;;;;;4408048;28;660113;-64
2022/11/27 11:25:04;;;;;;;23.83;12.33;;;4.50;99.90;;;;;;4428140;28;657350;-64
2022/11/27 11:27:53;;;;;;;20.77;11.73;;;4.50;99.90;;;;;;4412945;28;657497;-65
2022/11/27 11:30:40;;;;;;;22.20;10.90;;;4.50;99.90;;;;;;4418836;28;659075;-66
2022/11/27 11:33:27;;;;;;;25.70;12.45;;;4.40;99.90;;;;;;4432167;28;659469;-64
2022/11/27 11:36:14;;;;;;;25.77;11.47;;;4.50;99.90;;;;;;4427212;28;657664;-64
2022/11/27 11:39:01;;;;;;;27.50;11.63;;;4.50;99.90;;;;;;4408404;28;658089;-64
2022/11/27 11:41:49;;;;;;;21.57;11.37;;;4.60;99.90;;;;;;4426744;28;658051;-64
2022/11/27 11:44:38;;;;;;;17.60;8.93;;;4.60;99.90;;;;;;4409261;28;658181;-65
2022/11/27 11:47:25;;;;;;;21.93;11.13;;;4.60;99.90;;;;;;4423229;28;656503;-66
2022/11/27 11:50:13;;;;;;;18.63;9.57;;;4.50;99.90;;;;;;4432301;28;657727;-65
2022/11/27 11:53:04;;;;;;;17.00;9.67;;;4.60;99.90;;;;;;4409331;28;656220;-66
2022/11/27 11:55:57;;;;;;;19.73;10.47;;;4.60;99.90;;;;;;4409316;28;656301;-65
2022/11/27 11:58:56;;;;;;;18.20;9.97;;;4.70;99.90;;;;;;4423895;28;657423;-66
2022/11/27 12:02:00;;;;;;;20.03;9.07;;;4.60;99.90;;;;;;4407218;28;657106;-65
2022/11/27 12:05:11;;;;;;;18.43;9.60;;;4.70;99.90;;;;;;4386311;28;657350;-64
2022/11/27 12:08:27;;;;;;;19.77;9.43;;;4.60;99.90;;;;;;4404328;28;657349;-65
2022/11/27 12:11:15;;;;;;;25.77;12.63;;;4.70;99.90;;;;;;4405968;28;657447;-65
2022/11/27 12:14:10;;;;;;;27.23;12.87;;;4.80;99.90;;;;;;4403444;28;659703;-64
2022/11/27 12:17:04;;;;;;;24.50;10.83;;;4.80;99.90;;;;;;4379997;28;658626;-65
2022/11/27 12:20:13;;;;;;;21.97;11.33;;;4.90;99.90;;;;;;4381137;28;658678;-65
2022/11/27 12:23:16;;;;;;;24.93;11.87;;;4.90;99.90;;;;;;4384324;28;657387;-65
2022/11/27 12:26:07;;;;;;;25.43;10.87;;;4.80;99.90;;;;;;4402813;28;658017;-65
2022/11/27 12:29:17;;;;;;;29.77;12.90;;;4.90;99.90;;;;;;4402819;28;657624;-65
2022/11/27 12:32:23;;;;;;;20.77;10.53;;;5.00;99.90;;;;;;4404325;28;657804;-65
2022/11/27 12:35:31;;;;;;;22.47;10.83;;;5.00;99.90;;;;;;4384210;28;657872;-64
2022/11/27 12:38:32;;;;;;;21.53;10.87;;;5.10;99.90;;;;;;4402899;28;657891;-65
2022/11/27 12:41:43;;;;;;;25.03;12.20;;;5.20;99.90;;;;;;4402381;28;658045;-65
2022/11/27 12:44:36;;;;;;;27.17;12.03;;;5.10;99.90;;;;;;4389080;28;657629;-66
2022/11/27 12:47:26;;;;;;;33.00;14.40;;;5.00;99.90;;;;;;4404332;28;658578;-65
2022/11/27 12:50:17;;;;;;;23.97;10.67;;;4.80;99.90;;;;;;4403575;28;658062;-64
2022/11/27 12:53:10;;;;;;;23.00;12.00;;;4.90;99.90;;;;;;4402521;28;657647;-65
2022/11/27 12:56:01;;;;;;;21.65;10.30;;;4.90;99.90;;;;;;4407991;28;657926;-65
2022/11/27 12:58:51;;;;;;;20.83;11.00;;;4.90;99.90;;;;;;4404153;28;659109;-65
2022/11/27 13:01:41;;;;;;;24.83;11.87;;;4.80;99.90;;;;;;4744181;28;658413;-64
2022/11/27 13:04:32;;;;;;;18.63;10.37;;;4.80;99.90;;;;;;4536460;28;534802;-64
2022/11/27 13:07:22;;;;;;;13.43;7.80;;;4.80;99.90;;;;;;4404312;28;657291;-64
2022/11/27 13:10:13;;;;;;;21.13;8.77;;;4.80;99.90;;;;;;4406617;28;656644;-64
2022/11/27 13:13:03;;;;;;;21.07;8.93;;;4.70;99.90;;;;;;4392235;28;656424;-65
2022/11/27 13:15:52;;;;;;;20.55;10.48;;;4.70;99.90;;;;;;4410967;28;656743;-66
2022/11/27 13:18:40;;;;;;;18.93;10.27;;;4.70;99.90;;;;;;4428151;28;658964;-64
2022/11/27 13:21:30;;;;;;;21.52;10.23;;;4.70;99.90;;;;;;4404757;28;658542;-64
2022/11/27 13:24:17;;;;;;;16.77;8.83;;;4.60;99.90;;;;;;4405854;28;659068;-65
2022/11/27 13:27:06;;;;;;;19.37;9.13;;;4.60;99.90;;;;;;4429213;28;657254;-65
2022/11/27 13:29:54;;;;;;;19.60;9.30;;;4.60;99.90;;;;;;4406899;28;656953;-64
2022/11/27 13:32:42;;;;;;;20.47;9.43;;;4.50;99.90;;;;;;4412046;28;656632;-65
2022/11/27 13:35:30;;;;;;;17.70;9.23;;;4.50;99.90;;;;;;4431099;28;658114;-66
2022/11/27 13:38:21;;;;;;;17.30;8.30;;;4.40;99.90;;;;;;4408105;28;658264;-64
2022/11/27 13:41:08;;;;;;;30.37;13.37;;;4.40;99.90;;;;;;4407460;28;657878;-65
2022/11/27 13:43:55;;;;;;;26.30;13.43;;;4.30;99.90;;;;;;4409231;28;657496;-66
2022/11/27 13:46:44;;;;;;;31.77;15.32;;;4.20;99.90;;;;;;4432109;28;657611;-64
2022/11/27 13:49:32;;;;;;;31.40;14.00;;;4.20;99.90;;;;;;4411144;28;657708;-64
2022/11/27 13:52:21;;;;;;;31.37;13.47;;;4.10;99.90;;;;;;4434502;28;657449;-65
2022/11/27 13:55:10;;;;;;;28.87;11.97;;;4.10;99.90;;;;;;4406984;28;659132;-64
2022/11/27 13:57:59;;;;;;;34.57;14.53;;;3.90;99.90;;;;;;4404482;28;658960;-64
2022/11/27 14:00:46;;;;;;;28.80;12.10;;;3.90;99.90;;;;;;4409622;28;657458;-65
2022/11/27 14:03:35;;;;;;;30.63;12.67;;;3.80;99.90;;;;;;4430183;28;657795;-64
2022/11/27 14:06:23;;;;;;;34.50;15.20;;;3.80;99.90;;;;;;4410803;28;658143;-64
2022/11/27 14:09:10;;;;;;;34.83;15.17;;;3.70;99.90;;;;;;4410016;28;657528;-65
2022/11/27 14:11:59;;;;;;;33.77;13.37;;;3.70;99.90;;;;;;4432327;28;659076;-65
2022/11/27 14:14:58;;;;;;;33.37;14.27;;;3.60;99.90;;;;;;4408516;28;657747;-65
2022/11/27 14:17:46;;;;;;;42.37;15.43;;;3.60;99.90;;;;;;4384956;28;658282;-66